createdAt,value
2022-10-18T00:01:13.306Z,42.01
2022-10-18T00:03:40.664Z,42.22
2022-10-18T00:06:11.397Z,42.17
2022-10-18T00:08:39.523Z,42.45
2022-10-18T00:11:07.917Z,42.31
2022-10-18T00:13:34.807Z,42.38
2022-10-18T00:16:04.926Z,42.53
2022-10-18T00:18:32.720Z,42.69
2022-10-18T00:21:05.936Z,42.76
2022-10-18T00:23:36.436Z,43.00
2022-10-18T00:26:16.220Z,42.85
2022-10-18T00:28:45.722Z,42.85
2022-10-18T00:31:27.464Z,42.96
2022-10-18T00:34:09.311Z,42.99
2022-10-18T00:36:40.153Z,42.84
2022-10-18T00:39:13.599Z,43.17
2022-10-18T00:41:40.524Z,43.32
2022-10-18T00:44:15.789Z,43.32
2022-10-18T00:46:45.342Z,43.29
2022-10-18T00:49:26.953Z,43.32
2022-10-18T00:52:00.426Z,43.38
2022-10-18T00:54:30.419Z,43.36
2022-10-18T00:56:57.710Z,43.45
2022-10-18T00:59:25.458Z,43.39
2022-10-18T01:01:57.022Z,43.48
2022-10-18T01:04:24.871Z,43.50
2022-10-18T01:07:28.682Z,43.76
2022-10-18T01:10:11.289Z,43.85
2022-10-18T01:13:05.944Z,43.82
2022-10-18T01:15:59.991Z,43.69
2022-10-18T01:18:40.995Z,43.74
2022-10-18T01:21:22.803Z,43.87
2022-10-18T01:24:30.793Z,43.88
2022-10-18T01:27:35.703Z,43.68
2022-10-18T01:30:24.361Z,43.80
2022-10-18T01:32:54.422Z,44.09
2022-10-18T01:35:33.352Z,43.93
2022-10-18T01:38:06.061Z,43.78
2022-10-18T01:40:35.469Z,44.09
2022-10-18T01:43:04.204Z,44.34
2022-10-18T01:45:35.120Z,44.31
2022-10-18T01:48:04.792Z,44.23
2022-10-18T01:50:35.379Z,44.36
2022-10-18T01:53:02.784Z,44.25
2022-10-18T01:55:47.548Z,44.58
2022-10-18T01:58:56.278Z,44.35
2022-10-18T02:01:38.431Z,44.35
2022-10-18T02:04:19.007Z,44.32
2022-10-18T02:06:54.882Z,44.20
2022-10-18T02:09:34.583Z,44.23
2022-10-18T02:12:02.810Z,44.24
2022-10-18T02:14:31.695Z,44.38
2022-10-18T02:17:03.076Z,44.38
2022-10-18T02:19:39.854Z,44.64
2022-10-18T02:22:12.798Z,44.51
2022-10-18T02:24:54.434Z,44.51
2022-10-18T02:27:21.858Z,44.52
2022-10-18T02:29:49.262Z,44.48
2022-10-18T02:32:40.737Z,44.16
2022-10-18T02:35:13.252Z,44.21
2022-10-18T02:37:43.444Z,44.17
2022-10-18T02:40:10.683Z,44.08
2022-10-18T02:42:43.582Z,44.10
2022-10-18T02:45:11.149Z,44.40
2022-10-18T02:47:38.040Z,44.36
2022-10-18T02:50:09.834Z,44.31
2022-10-18T02:52:37.940Z,44.44
2022-10-18T02:55:06.761Z,44.22
2022-10-18T02:57:34.336Z,44.36
2022-10-18T03:00:03.462Z,44.30
2022-10-18T03:02:31.928Z,44.39
2022-10-18T03:04:59.221Z,44.39
2022-10-18T03:07:26.263Z,44.27
2022-10-18T03:09:53.016Z,44.30
2022-10-18T03:12:19.781Z,44.30
2022-10-18T03:14:49.588Z,44.48
2022-10-18T03:17:19.926Z,44.39
2022-10-18T03:19:48.789Z,44.34
2022-10-18T03:22:18.660Z,44.35
2022-10-18T03:24:51.059Z,44.31
2022-10-18T03:27:18.918Z,44.31
2022-10-18T03:29:46.894Z,44.18
2022-10-18T03:32:14.976Z,44.30
2022-10-18T03:34:41.736Z,44.38
2022-10-18T03:37:09.352Z,44.24
2022-10-18T03:39:37.247Z,44.30
2022-10-18T03:42:04.006Z,44.22
2022-10-18T03:44:30.986Z,44.29
2022-10-18T03:47:00.965Z,44.27
2022-10-18T03:49:30.957Z,44.26
2022-10-18T03:51:59.051Z,44.35
2022-10-18T03:54:26.926Z,44.29
2022-10-18T03:56:53.703Z,44.29
2022-10-18T03:59:20.558Z,44.27
2022-10-18T04:01:47.456Z,44.32
2022-10-18T04:04:21.297Z,44.40
2022-10-18T04:06:49.935Z,44.21
2022-10-18T04:09:17.227Z,44.20
2022-10-18T04:11:44.100Z,44.02
2022-10-18T04:14:11.496Z,43.81
2022-10-18T04:16:39.944Z,43.97
2022-10-18T04:19:08.923Z,44.09
2022-10-18T04:21:36.035Z,43.90
2022-10-18T04:24:06.696Z,43.88
2022-10-18T04:26:36.388Z,43.74
2022-10-18T04:29:04.140Z,43.69
2022-10-18T04:31:31.335Z,43.75
2022-10-18T04:33:58.204Z,43.58
2022-10-18T04:36:25.277Z,43.61
2022-10-18T04:38:54.900Z,43.65
2022-10-18T04:41:21.785Z,43.57
2022-10-18T04:43:49.802Z,43.48
2022-10-18T04:46:16.962Z,43.38
2022-10-18T04:48:44.499Z,43.32
2022-10-18T04:51:11.747Z,43.44
2022-10-18T04:53:39.579Z,43.21
2022-10-18T04:56:07.136Z,43.20
2022-10-18T04:58:36.284Z,43.24
2022-10-18T05:01:07.075Z,43.15
2022-10-18T05:03:34.457Z,43.07
2022-10-18T05:06:03.632Z,42.93
2022-10-18T05:08:33.725Z,42.90
2022-10-18T05:11:01.407Z,42.74
2022-10-18T05:13:37.694Z,42.81
2022-10-18T05:16:05.328Z,42.84
2022-10-18T05:18:33.883Z,42.66
2022-10-18T05:21:04.951Z,42.73
2022-10-18T05:23:33.141Z,42.72
2022-10-18T05:26:07.988Z,42.65
2022-10-18T05:28:40.010Z,42.50
2022-10-18T05:31:11.296Z,42.23
2022-10-18T05:33:38.489Z,42.23
2022-10-18T05:36:05.805Z,42.26
2022-10-18T05:38:33.792Z,42.10
2022-10-18T05:41:06.487Z,41.88
2022-10-18T05:43:34.492Z,41.88
2022-10-18T05:46:04.209Z,41.95
2022-10-18T05:48:32.428Z,41.90
2022-10-18T05:51:00.268Z,41.90
2022-10-18T05:53:43.187Z,41.71
2022-10-18T05:56:13.859Z,41.49
2022-10-18T05:58:44.833Z,41.57
2022-10-18T06:01:11.660Z,41.43
2022-10-18T06:03:39.282Z,41.25
2022-10-18T06:06:10.274Z,41.03
2022-10-18T06:08:41.213Z,41.24
2022-10-18T06:11:14.556Z,41.26
2022-10-18T06:13:43.989Z,40.94
2022-10-18T06:16:12.784Z,40.95
2022-10-18T06:18:44.028Z,40.75
2022-10-18T06:21:17.684Z,40.71
2022-10-18T06:23:52.703Z,40.69
2022-10-18T06:26:26.133Z,40.51
2022-10-18T06:28:56.192Z,40.51
2022-10-18T06:31:25.303Z,40.26
2022-10-18T06:33:58.749Z,40.05
2022-10-18T06:36:30.242Z,40.16
2022-10-18T06:38:57.498Z,40.12
2022-10-18T06:41:24.292Z,40.20
2022-10-18T06:43:53.217Z,40.23
2022-10-18T06:46:22.616Z,40.35
2022-10-18T06:48:49.924Z,40.22
2022-10-18T06:51:18.371Z,40.41
2022-10-18T06:53:59.113Z,40.42
2022-10-18T06:56:35.326Z,40.44
2022-10-18T06:59:03.495Z,40.23
2022-10-18T07:01:30.574Z,40.10
2022-10-18T07:03:57.684Z,40.21
2022-10-18T07:06:24.908Z,40.20
2022-10-18T07:08:54.647Z,39.99
2022-10-18T07:11:27.083Z,39.92
2022-10-18T07:14:00.308Z,39.77
2022-10-18T07:16:30.090Z,39.72
2022-10-18T07:18:58.820Z,39.54
2022-10-18T07:21:26.726Z,39.38
2022-10-18T07:23:55.962Z,39.49
2022-10-18T07:26:31.736Z,39.20
2022-10-18T07:29:06.192Z,39.00
2022-10-18T07:31:33.422Z,38.73
2022-10-18T07:34:00.670Z,38.47
2022-10-18T07:36:27.621Z,38.08
2022-10-18T07:38:54.495Z,37.96
2022-10-18T07:41:21.548Z,37.78
2022-10-18T07:43:52.575Z,37.51
2022-10-18T07:46:25.743Z,37.28
2022-10-18T07:48:54.332Z,37.29
2022-10-18T07:51:21.951Z,37.26
2022-10-18T07:53:49.315Z,37.01
2022-10-18T07:56:21.536Z,36.79
2022-10-18T07:58:53.027Z,36.41
2022-10-18T08:01:22.066Z,36.53
2022-10-18T08:03:50.486Z,36.24
2022-10-18T08:06:20.122Z,36.05
2022-10-18T08:08:46.942Z,36.05
2022-10-18T08:11:17.293Z,35.66
2022-10-18T08:13:45.347Z,35.48
2022-10-18T08:16:16.213Z,35.84
2022-10-18T08:18:43.645Z,35.37
2022-10-18T08:21:12.949Z,35.89
2022-10-18T08:23:42.054Z,35.61
2022-10-18T08:26:12.207Z,35.86
2022-10-18T08:28:49.099Z,35.56
2022-10-18T08:31:21.100Z,35.36
2022-10-18T08:33:50.914Z,35.21
2022-10-18T08:36:21.271Z,35.07
2022-10-18T08:38:49.391Z,35.31
2022-10-18T08:41:22.295Z,35.28
2022-10-18T08:44:07.211Z,35.22
2022-10-18T08:46:38.523Z,35.04
2022-10-18T08:49:10.472Z,34.82
2022-10-18T08:51:46.121Z,34.80
2022-10-18T08:54:18.553Z,34.68
2022-10-18T08:56:56.293Z,34.74
2022-10-18T08:59:25.677Z,34.49
2022-10-18T09:02:16.526Z,34.28
